Decoded Metar for VTPH (PRACHUAP KHIRI KHAN in THAILAND) (IATA:HHQ) | Meteo·Mobile Aviation Weather
aviador You're here:

VTPH Decoded Metar

PRACHUAP KHIRI KHAN in THAILAND
Report Time2018-08-20 01:00:00
UTC Time2018-08-20 01:26:58
Flight Rules vfr VFR
WindVRB at 02 kt
Visibility9999 m
Phenomena:N/A
Clouds:Scattered 032 Hf
Broken 050 Hf
Expected CloudBase > 1,200 ft AGL from Temp-Dew spread
Ceiling5,000 ft
Temp27°C (ISA +12)
Dew Point24°C (84% RH)
Heat Index30.1°C
QNH1008 hPa
Density Alt1,969 ft
Elevation20 ft
Report Wrong Elevation
Raw Report
VTPH 200100Z VRB02KT 9999 SCT032 BKN050 27/24 Q1008 NOSIG=

Extra information for VTPH:More info

Metar Taf Metar & Taf Last 4 Metars F.Rules Stats Wind Profile Meteogram Temp Stats Airport Information Weather charts Add Link Nearby VenuesMetar ALERT Operation Metar Decoded Social comments